Flight Track Log - Related Links

Times and Time Zones

All times are in EDT time to prevent confusion due to time zone crossing. See the MAL7070 flight status page for this flight to view local times or setup timezone preferences in your user account.

Time Position Orientation Groundspeed Altitude Reporting Facility
EDT Latitude Longitude Course Direction KTS MPH feet Rate Location/Type
Wed 12:39:02 AM 49.9540 -97.2940 318° Northwest 208 239 4,200  Level FlightAware ADS-B
Wed 12:39:17 AM 49.9690 -97.2900 10° North 239 275 4,600 2,000 Climbing FlightAware ADS-B
Wed 12:39:32 AM 49.9830 -97.2730 38° Northeast 263 303 5,200 3,150 Climbing FlightAware ADS-B
Wed 12:39:57 AM 49.9900 -97.2180 79° East 288 331 6,700 3,600 Climbing FlightAware ADS-B
Wed 12:40:27 AM 49.9770 -97.1630 110° East 290 334 8,500 3,491 Climbing FlightAware ADS-B
Wed 12:40:52 AM 49.9690 -97.1070 103° East 303 349 9,900 2,213 Climbing FlightAware ADS-B
Wed 12:43:00 AM 49.9333 -96.7113 90° East  Level FlightAware Approximate
Wed 12:43:07 AM 49.9430 -96.7600 90° East 410 472 14,400  Level FlightAware ADS-B
Wed 12:44:37 AM 49.9380 -96.4770 91° East 431 496 18,600 2,533 Climbing FlightAware ADS-B
Wed 12:45:22 AM 49.9370 -96.3410 91° East 444 511 20,100 1,906 Climbing FlightAware ADS-B
Wed 12:46:02 AM 49.9360 -96.2210 91° East 458 527 21,300 1,906 Climbing FlightAware ADS-B
Wed 12:46:47 AM 49.9340 -96.0680 91° East 470 541 22,800 1,980 Climbing FlightAware ADS-B
Wed 12:47:42 AM 49.9320 -95.8740 91° East 484 557 24,600 1,080 Climbing FlightAware ADS-B
Wed 12:48:27 AM 49.9300 -95.7290 91° East 484 557 24,600  Level FlightAware ADS-B
Wed 12:48:57 AM 49.9290 -95.6410 91° East 484 557 24,600  Level FlightAware ADS-B
Wed 12:49:47 AM 49.9270 -95.4930 91° East 484 557 24,600  Level FlightAware ADS-B
Wed 12:50:27 AM 49.9260 -95.3750 91° East 484 557 24,600  Level FlightAware ADS-B
Wed 12:51:07 AM 49.9250 -95.2560 91° East 484 557 24,600 4,952 Level FlightAware ADS-B
Wed 12:51:30 AM 49.9000 -95.0000 91° East 540 621 29,800 4,699 Climbing Winnipeg Center
Wed 12:52:30 AM 49.8667 -94.7667 102° East 550 633 31,100 1,650 Climbing Winnipeg Center
Wed 12:53:30 AM 49.8167 -94.5500 110° East 530 610 33,100 2,050 Climbing Winnipeg Center
Wed 12:54:30 AM 49.7667 -94.3500 111° Southeast 510 587 35,200 1,567 Climbing Winnipeg Center
Wed 12:56:30 AM 49.6500 -94.0000 117° Southeast 480 552 37,800 1,033 Climbing Winnipeg Center
Wed 12:57:30 AM 49.6000 -93.7833 110° East 480 552 38,300 600 Climbing Winnipeg Center
Wed 12:58:30 AM 49.5500 -93.6167 115° Southeast 500 575 39,000 350 Climbing Winnipeg Center
Wed 12:59:30 AM 49.4667 -93.4167 123° Southeast 500 575 39,000  Level Winnipeg Center
Wed 01:05:17 AM 49.1470 -92.3510 123° Southeast 485 558 39,000  Level FlightAware ADS-B
Wed 01:05:57 AM 49.1140 -92.2460 116° Southeast 485 558 39,000  Level FlightAware ADS-B
Wed 01:06:47 AM 49.0570 -92.0770 117° Southeast 470 541 39,000  Level FlightAware ADS-B
Wed 01:07:27 AM 49.0190 -91.9620 117° Southeast 466 536 39,000  Level FlightAware ADS-B
Wed 01:08:12 AM 48.9750 -91.8310 117° Southeast 465 535 39,000  Level FlightAware ADS-B
Wed 01:08:52 AM 48.9370 -91.7140 116° Southeast 465 535 39,000  Level FlightAware ADS-B
Wed 01:09:27 AM 48.8890 -91.6170 127° Southeast 465 535 39,000  Level FlightAware ADS-B
Wed 01:10:17 AM 48.8540 -91.4690 110° East 474 545 39,000  Level FlightAware ADS-B
Wed 01:10:57 AM 48.8110 -91.3410 117° Southeast 480 552 39,000  Level FlightAware ADS-B
Wed 01:11:42 AM 48.7670 -91.2140 118° Southeast 472 543 39,000  Level FlightAware ADS-B
Wed 01:12:22 AM 48.7270 -91.0950 117° Southeast 462 532 39,000  Level FlightAware ADS-B
Wed 01:13:07 AM 48.6820 -90.9640 117° Southeast 454 522 39,000  Level FlightAware ADS-B
Wed 01:13:47 AM 48.6440 -90.8560 118° Southeast 448 516 39,000  Level FlightAware ADS-B
Wed 01:14:27 AM 48.6080 -90.7540 118° Southeast 445 512 39,000  Level FlightAware ADS-B
Wed 01:15:12 AM 48.5630 -90.6220 117° Southeast 445 512 39,000  Level FlightAware ADS-B
Wed 01:15:52 AM 48.5300 -90.5260 117° Southeast 446 513 39,000  Level FlightAware ADS-B
Wed 01:16:32 AM 48.4840 -90.3980 118° Southeast 462 532 39,000  Level FlightAware ADS-B
Wed 01:17:17 AM 48.4400 -90.2720 118° Southeast 466 536 39,000  Level FlightAware ADS-B
Wed 01:17:57 AM 48.3970 -90.1510 118° Southeast 470 541 39,000  Level FlightAware ADS-B
Wed 01:18:42 AM 48.3520 -90.0240 118° Southeast 474 545 39,000  Level FlightAware ADS-B
Wed 01:19:22 AM 48.3110 -89.9110 119° Southeast 476 548 39,000  Level FlightAware ADS-B
Wed 01:20:02 AM 48.2690 -89.7940 118° Southeast 477 549 39,000  Level FlightAware ADS-B
Wed 01:20:47 AM 48.2200 -89.6570 118° Southeast 477 549 39,000  Level FlightAware ADS-B
Wed 01:21:27 AM 48.1780 -89.5450 119° Southeast 477 549 39,000  Level FlightAware ADS-B
Wed 01:22:12 AM 48.1320 -89.4170 118° Southeast 474 545 39,000  Level FlightAware ADS-B
Wed 01:22:52 AM 48.0950 -89.3120 118° Southeast 474 545 39,000  Level FlightAware ADS-B
Wed 01:23:32 AM 48.0600 -89.2130 118° Southeast 474 545 39,000  Level FlightAware ADS-B
Wed 01:24:12 AM 48.0250 -89.1150 118° Southeast 474 545 39,000  Level FlightAware ADS-B
Wed 01:24:52 AM 47.9900 -89.0160 118° Southeast 474 545 39,000  Level FlightAware ADS-B
Wed 01:25:42 AM 47.9460 -88.8930 118° Southeast 474 545 39,000  Level FlightAware ADS-B
Wed 01:26:17 AM 47.8760 -88.7170 121° Southeast 472 543 39,000  Level FlightAware ADS-B
Wed 01:27:02 AM 47.8360 -88.6050 118° Southeast 472 543 39,000  Level FlightAware ADS-B
Wed 01:27:42 AM 47.8010 -88.5070 118° Southeast 472 543 39,000  Level FlightAware ADS-B
Wed 01:28:22 AM 47.7660 -88.4100 118° Southeast 472 543 39,000  Level FlightAware ADS-B
Wed 01:29:12 AM 47.6880 -88.2160 121° Southeast 473 544 39,000  Level FlightAware ADS-B
Wed 01:29:52 AM 47.6480 -88.1040 118° Southeast 481 554 39,000  Level FlightAware ADS-B
Wed 01:30:32 AM 47.6200 -87.9960 111° Southeast 485 558 39,000  Level FlightAware ADS-B
Wed 01:31:12 AM 47.5930 -87.8900 111° Southeast 485 558 39,000  Level FlightAware ADS-B
Wed 01:32:02 AM 47.5580 -87.7580 111° Southeast 485 558 39,000  Level FlightAware ADS-B
Wed 01:32:42 AM 47.5310 -87.6530 111° Southeast 485 558 39,000  Level FlightAware ADS-B
Wed 01:33:22 AM 47.5040 -87.5470 111° Southeast 485 558 39,000  Level FlightAware ADS-B
Wed 01:34:02 AM 47.4760 -87.4420 111° Southeast 485 558 39,000  Level FlightAware ADS-B
Wed 01:34:42 AM 47.4490 -87.3370 111° Southeast 485 558 39,000  Level FlightAware ADS-B
Wed 01:35:22 AM 47.4220 -87.2310 111° Southeast 485 558 39,000  Level FlightAware ADS-B
Wed 01:36:12 AM 47.3870 -87.1000 111° Southeast 485 558 39,000  Level FlightAware ADS-B
Wed 01:36:52 AM 47.3600 -86.9950 111° Southeast 485 558 39,000  Level FlightAware ADS-B
Wed 01:37:32 AM 47.3330 -86.8900 111° Southeast 485 558 39,000  Level FlightAware ADS-B
Wed 01:38:12 AM 47.3050 -86.7850 111° Southeast 485 558 39,000  Level FlightAware ADS-B
Wed 01:38:52 AM 47.2780 -86.6800 111° Southeast 485 558 39,000  Level FlightAware ADS-B
Wed 01:39:32 AM 47.2510 -86.5750 111° Southeast 485 558 39,000 1,000 Level FlightAware ADS-B
Wed 01:40:52 AM 46.9990 -86.1310 130° Southeast 492 566 41,000 1,000 Climbing FlightAware ADS-B
Wed 01:41:32 AM 46.9490 -86.0160 122° Southeast 494 568 41,000  Level FlightAware ADS-B
Wed 01:42:12 AM 46.9000 -85.9060 123° Southeast 496 571 41,000  Level FlightAware ADS-B
Wed 01:42:52 AM 46.8500 -85.7890 122° Southeast 498 573 41,000  Level FlightAware ADS-B
Wed 01:43:37 AM 46.7930 -85.6590 123° Southeast 498 573 41,000  Level FlightAware ADS-B
Wed 01:44:22 AM 46.7390 -85.5380 123° Southeast 497 572 41,000  Level FlightAware ADS-B
Wed 01:45:02 AM 46.6890 -85.4220 122° Southeast 497 572 41,000  Level FlightAware ADS-B
Wed 01:45:42 AM 46.6380 -85.3110 124° Southeast 494 568 41,000  Level FlightAware ADS-B
Wed 01:46:27 AM 46.5830 -85.1860 123° Southeast 492 566 41,000  Level FlightAware ADS-B
Wed 01:47:07 AM 46.5320 -85.0720 123° Southeast 489 563 41,000  Level FlightAware ADS-B
Wed 01:47:52 AM 46.4780 -84.9520 123° Southeast 487 560 41,000  Level FlightAware ADS-B
Wed 01:48:32 AM 46.4290 -84.8460 124° Southeast 485 558 41,000  Level FlightAware ADS-B
Wed 01:49:12 AM 46.3800 -84.7380 123° Southeast 481 554 41,000  Level FlightAware ADS-B
Wed 01:49:57 AM 46.3250 -84.6140 123° Southeast 479 551 41,000  Level FlightAware ADS-B
Wed 01:50:37 AM 46.2750 -84.5070 124° Southeast 479 551 41,000  Level FlightAware ADS-B
Wed 01:51:22 AM 46.2220 -84.3870 123° Southeast 479 551 41,000  Level FlightAware ADS-B
Wed 01:52:02 AM 46.1740 -84.2830 124° Southeast 478 550 41,000  Level FlightAware ADS-B
Wed 01:52:42 AM 46.1250 -84.1740 123° Southeast 477 549 41,000  Level FlightAware ADS-B
Wed 01:53:27 AM 46.0690 -84.0520 123° Southeast 477 549 41,000  Level FlightAware ADS-B
Wed 01:54:07 AM 46.0210 -83.9490 124° Southeast 478 550 41,000  Level FlightAware ADS-B
Wed 01:54:52 AM 45.9670 -83.8320 124° Southeast 478 550 41,000  Level FlightAware ADS-B
Wed 01:55:32 AM 45.9180 -83.7270 124° Southeast 480 552 41,000  Level FlightAware ADS-B
Wed 01:56:17 AM 45.8600 -83.6050 124° Southeast 482 555 41,000  Level FlightAware ADS-B
Wed 01:56:57 AM 45.8120 -83.5010 123° Southeast 483 556 41,000  Level FlightAware ADS-B
Wed 01:57:37 AM 45.7610 -83.3920 124° Southeast 484 557 41,000  Level FlightAware ADS-B
Wed 01:58:22 AM 45.7050 -83.2730 124° Southeast 484 557 41,000  Level FlightAware ADS-B
Wed 01:59:02 AM 45.6530 -83.1640 124° Southeast 486 559 41,000  Level FlightAware ADS-B
Wed 01:59:42 AM 45.6030 -83.0570 124° Southeast 488 562 41,000 -212 Level FlightAware ADS-B
Wed 02:00:27 AM 45.5480 -82.9430 125° Southeast 485 558 40,700 -776 Descending FlightAware ADS-B
Wed 02:01:07 AM 45.4970 -82.8350 124° Southeast 481 554 39,900 -1,341 Descending FlightAware ADS-B
Wed 02:01:52 AM 45.4390 -82.7150 125° Southeast 480 552 38,800 -1,412 Descending FlightAware ADS-B
Wed 02:02:32 AM 45.3890 -82.6130 125° Southeast 479 551 37,900 -1,412 Descending FlightAware ADS-B
Wed 02:03:17 AM 45.3340 -82.4990 124° Southeast 484 557 36,800 -1,520 Descending FlightAware ADS-B
Wed 02:03:47 AM 45.2980 -82.4260 125° Southeast 485 558 36,000 -1,350 Descending FlightAware ADS-B
Wed 02:04:37 AM 45.2290 -82.2840 125° Southeast 485 558 35,000 -632 Descending FlightAware ADS-B
Wed 02:05:22 AM 45.1730 -82.1690 125° Southeast 483 556 35,000  Level FlightAware ADS-B
Wed 02:06:02 AM 45.1230 -82.0680 125° Southeast 479 551 35,000  Level FlightAware ADS-B
Wed 02:06:42 AM 45.0710 -81.9630 125° Southeast 476 548 35,000  Level FlightAware ADS-B
Wed 02:07:27 AM 45.0140 -81.8460 125° Southeast 475 547 35,000  Level FlightAware ADS-B
Wed 02:08:07 AM 44.9630 -81.7450 125° Southeast 474 545 35,000  Level FlightAware ADS-B
Wed 02:08:52 AM 44.9080 -81.6360 125° Southeast 475 547 35,000  Level FlightAware ADS-B
Wed 02:09:32 AM 44.8580 -81.5310 124° Southeast 476 548 35,000  Level FlightAware ADS-B
Wed 02:10:17 AM 44.8020 -81.4190 125° Southeast 477 549 35,000  Level FlightAware ADS-B
Wed 02:10:57 AM 44.7650 -81.3420 124° Southeast 477 549 35,000 -75 Level FlightAware ADS-B
Wed 02:11:37 AM 44.7170 -81.2450 125° Southeast 477 549 34,900 -1,129 Descending FlightAware ADS-B
Wed 02:12:22 AM 44.6620 -81.1350 125° Southeast 473 544 33,400 -2,682 Descending FlightAware ADS-B
Wed 02:13:02 AM 44.6090 -81.0300 125° Southeast 482 555 31,100 -3,318 Descending FlightAware ADS-B
Wed 02:13:47 AM 44.5540 -80.9170 124° Southeast 483 556 28,700 -3,035 Descending FlightAware ADS-B
Wed 02:14:27 AM 44.5030 -80.8190 126° Southeast 472 543 26,800 -2,850 Descending FlightAware ADS-B
Wed 02:15:07 AM 44.4510 -80.7150 125° Southeast 460 529 24,900 -2,753 Descending FlightAware ADS-B
Wed 02:15:52 AM 44.3990 -80.6100 125° Southeast 450 518 22,900 -3,035 Descending FlightAware ADS-B
Wed 02:16:32 AM 44.3500 -80.5150 126° Southeast 448 516 20,600 -3,388 Descending FlightAware ADS-B
Wed 02:17:17 AM 44.2950 -80.4070 125° Southeast 438 504 18,100 -2,894 Descending FlightAware ADS-B
Wed 02:17:57 AM 44.2530 -80.3260 126° Southeast 420 483 16,500 -2,775 Descending FlightAware ADS-B
Wed 02:18:37 AM 44.2080 -80.2370 125° Southeast 408 470 14,400 -3,106 Descending FlightAware ADS-B
Wed 02:19:22 AM 44.1560 -80.1370 126° Southeast 401 461 12,100 -1,906 Descending FlightAware ADS-B
Wed 02:20:02 AM 44.1180 -80.0610 125° Southeast 358 412 11,700 -225 Descending FlightAware ADS-B
Wed 02:20:42 AM 44.0810 -79.9900 126° Southeast 308 354 11,800 -706 Climbing FlightAware ADS-B
Wed 02:21:27 AM 44.0460 -79.9230 126° Southeast 307 353 10,700 -1,520 Descending FlightAware ADS-B
Wed 02:21:57 AM 44.0240 -79.8790 125° Southeast 308 354 9,900 -1,745 Descending FlightAware ADS-B
Wed 02:22:22 AM 44.0010 -79.8360 127° Southeast 305 351 9,100 -1,855 Descending FlightAware ADS-B
Wed 02:22:52 AM 43.9740 -79.7850 126° Southeast 304 350 8,200 -1,745 Descending FlightAware ADS-B
Wed 02:23:17 AM 43.9520 -79.7420 125° Southeast 302 348 7,500 -1,636 Descending FlightAware ADS-B
Wed 02:23:47 AM 43.9290 -79.6990 127° Southeast 299 344 6,700 -1,500 Descending FlightAware ADS-B
Wed 02:24:17 AM 43.9060 -79.6540 125° Southeast 293 337 6,000 -1,309 Descending FlightAware ADS-B
Wed 02:24:42 AM 43.8850 -79.6150 127° Southeast 283 326 5,500 -1,350 Descending FlightAware ADS-B
Wed 02:24:57 AM 43.8730 -79.5900 124° Southeast 279 321 5,100 -2,100 Descending FlightAware ADS-B
Wed 02:25:22 AM 43.8530 -79.5550 128° Southeast 268 308 4,100 -1,636 Descending FlightAware ADS-B
Wed 02:25:52 AM 43.8320 -79.5200 130° Southeast 243 280 3,600 -1,067 Descending FlightAware ADS-B
Wed 02:26:07 AM 43.8200 -79.5060 140° Southeast 223 257 3,300 -1,000 Descending FlightAware ADS-B
Wed 02:26:22 AM 43.8060 -79.4980 158° South 200 230 3,100 -900 Descending FlightAware ADS-B
Wed 02:26:27 AM 43.8010 -79.4970 172° South 192 221 3,000 -480 Descending FlightAware ADS-B
Wed 02:26:47 AM 43.7850 -79.5050 200° South 170 196 2,900 -720 Descending FlightAware ADS-B
Wed 02:27:17 AM 43.7680 -79.5280 224° Southwest 162 186 2,400 -900 Descending FlightAware ADS-B
Wed 02:27:47 AM 43.7540 -79.5480 226° Southwest 141 162 2,000 -655 Descending FlightAware ADS-B
Wed 02:28:12 AM 43.7430 -79.5640 226° Southwest 125 144 1,800 -655 Descending FlightAware ADS-B
Wed 02:28:42 AM 43.7320 -79.5790 225° Southwest 100 115 1,400 -655 Descending FlightAware ADS-B
Wed 02:29:07 AM 43.7240 -79.5910 227° Southwest 103 119 1,200 -545 Descending FlightAware ADS-B
Wed 02:29:37 AM 43.7140 -79.6060 227° Southwest 107 123 900 -545 Descending FlightAware ADS-B
Wed 02:30:02 AM 43.7070 -79.6170 229° Southwest 109 125 700 -545 Descending FlightAware ADS-B
Wed 02:30:32 AM 43.6960 -79.6320 225° Southwest 117 135 400 -600 Descending FlightAware ADS-B

Login

Don't have an account? Register now (free) for customized features, flight alerts, and more!